Time;durP1;ratioP1;P1;durP2;ratioP2;P2;SDS_P1;SDS_P2;PMS_P1;PMS_P2;Temp;Humidity;BMP_temperature;BMP_pressure;BME280_temperature;BME280_humidity;BME280_pressure;Samples;Min_cycle;Max_cycle;Signal;HPM_P1;HPM_P2
2021/08/31 00:02:25;;;;;;;6.53;5.93;;;24.90;54.20;;;;;;5143664;27;20438;-75
2021/08/31 00:04:54;;;;;;;7.93;5.97;;;24.90;54.40;;;;;;5145059;27;20441;-75
2021/08/31 00:07:22;;;;;;;6.60;6.00;;;24.80;54.40;;;;;;5145378;27;20438;-75
2021/08/31 00:09:51;;;;;;;6.67;5.73;;;24.80;54.60;;;;;;5145715;27;20442;-75
2021/08/31 00:12:19;;;;;;;7.60;6.43;;;24.70;54.50;;;;;;5145469;27;20404;-75
2021/08/31 00:14:47;;;;;;;9.73;5.40;;;24.70;54.70;;;;;;5145638;27;20416;-75
2021/08/31 00:17:17;;;;;;;8.00;6.10;;;24.60;54.60;;;;;;5145126;27;20416;-75
2021/08/31 00:19:45;;;;;;;10.80;6.50;;;24.60;54.60;;;;;;5144818;27;20554;-75
2021/08/31 00:22:13;;;;;;;7.33;5.77;;;24.60;54.70;;;;;;5147480;27;20590;-75
2021/08/31 00:24:41;;;;;;;7.70;6.07;;;24.50;54.70;;;;;;5149173;27;20426;-75
2021/08/31 00:27:09;;;;;;;6.50;5.70;;;24.50;54.60;;;;;;5149087;27;20419;-75
2021/08/31 00:29:37;;;;;;;8.10;5.70;;;24.50;54.70;;;;;;5148788;27;20512;-74
2021/08/31 00:32:44;;;;;;;7.73;5.60;;;24.50;54.70;;;;;;5148567;27;20434;-75
2021/08/31 00:35:13;;;;;;;5.80;5.20;;;24.40;54.70;;;;;;5148652;27;20425;-75
2021/08/31 00:37:41;;;;;;;6.97;6.27;;;24.40;54.70;;;;;;5148374;27;20434;-74
2021/08/31 00:40:18;;;;;;;7.37;5.87;;;24.40;54.80;;;;;;5148780;27;20430;-75
2021/08/31 00:42:46;;;;;;;6.03;5.30;;;24.40;54.80;;;;;;5148867;27;20440;-75
2021/08/31 00:45:21;;;;;;;9.83;6.70;;;24.40;54.70;;;;;;5148470;27;20436;-75
2021/08/31 00:47:49;;;;;;;6.10;5.50;;;24.30;54.80;;;;;;5148747;27;20484;-75
2021/08/31 00:50:29;;;;;;;10.07;5.87;;;24.30;54.70;;;;;;5148431;27;20416;-76
2021/08/31 00:53:20;;;;;;;6.20;5.60;;;24.30;54.80;;;;;;5138471;27;20409;-75
2021/08/31 00:55:48;;;;;;;7.73;6.00;;;24.30;54.90;;;;;;5122877;27;20465;-75
2021/08/31 00:58:17;;;;;;;6.43;5.70;;;24.20;54.80;;;;;;5138291;27;20518;-75
2021/08/31 01:00:46;;;;;;;7.03;5.70;;;24.20;54.80;;;;;;5134227;27;20442;-75
2021/08/31 01:03:15;;;;;;;6.97;5.50;;;24.20;54.70;;;;;;5140830;27;20425;-75
2021/08/31 01:05:50;;;;;;;7.07;5.60;;;24.20;54.90;;;;;;5135425;27;20433;-75
2021/08/31 01:08:20;;;;;;;5.83;5.23;;;24.10;54.80;;;;;;5136980;27;20394;-75
2021/08/31 01:10:48;;;;;;;6.30;5.40;;;24.10;54.80;;;;;;5135581;27;20409;-75
2021/08/31 01:13:16;;;;;;;6.03;5.43;;;24.10;54.70;;;;;;5135323;27;20426;-75
2021/08/31 01:15:47;;;;;;;5.97;5.43;;;24.10;54.70;;;;;;5142063;27;20468;-75
2021/08/31 01:18:24;;;;;;;9.50;5.10;;;24.10;54.80;;;;;;5147698;27;20531;-75
2021/08/31 01:20:54;;;;;;;5.87;5.27;;;24.10;54.80;;;;;;5148023;27;20416;-75
2021/08/31 01:23:22;;;;;;;11.50;5.90;;;24.00;54.70;;;;;;5150059;27;20430;-75
2021/08/31 01:25:52;;;;;;;6.90;5.60;;;24.00;54.90;;;;;;5146752;27;20442;-75
2021/08/31 01:28:21;;;;;;;6.80;6.10;;;24.00;54.80;;;;;;5146290;27;20522;-75
2021/08/31 01:30:50;;;;;;;6.93;5.60;;;24.00;54.80;;;;;;5146435;27;20416;-75
2021/08/31 01:33:18;;;;;;;6.50;5.00;;;24.00;54.90;;;;;;5145544;27;20452;-75
2021/08/31 01:35:46;;;;;;;7.23;5.40;;;24.00;54.80;;;;;;5146516;27;20458;-75
2021/08/31 01:38:14;;;;;;;8.37;5.57;;;24.00;54.80;;;;;;5146030;27;20481;-75
2021/08/31 01:40:45;;;;;;;6.77;5.67;;;23.90;54.70;;;;;;5146577;27;20465;-75
2021/08/31 01:43:25;;;;;;;6.60;5.47;;;23.90;54.80;;;;;;5146035;27;20413;-75
2021/08/31 01:45:53;;;;;;;8.90;5.57;;;23.90;54.80;;;;;;5146069;27;20511;-75
2021/08/31 01:48:21;;;;;;;6.50;5.60;;;23.90;54.80;;;;;;5145691;27;20509;-75
2021/08/31 01:50:49;;;;;;;5.60;5.10;;;23.80;54.80;;;;;;5146326;27;20446;-75
2021/08/31 01:53:37;;;;;;;5.60;5.10;;;23.80;54.90;;;;;;5146912;27;20433;-75
2021/08/31 01:56:05;;;;;;;5.00;4.60;;;23.80;54.80;;;;;;5147060;27;20469;-75
2021/08/31 01:58:35;;;;;;;7.30;5.57;;;23.80;54.90;;;;;;5136982;27;20570;-75
2021/08/31 02:01:03;;;;;;;6.50;5.53;;;23.80;54.90;;;;;;5132694;27;20450;-74
2021/08/31 02:03:32;;;;;;;8.13;6.07;;;23.80;54.90;;;;;;5145611;27;20469;-75
2021/08/31 02:06:01;;;;;;;5.57;5.07;;;23.70;54.90;;;;;;5137406;27;20413;-80
2021/08/31 02:08:29;;;;;;;6.03;5.43;;;23.70;54.80;;;;;;5144652;27;20426;-80
2021/08/31 02:10:57;;;;;;;5.97;5.23;;;23.80;54.90;;;;;;5146266;27;20434;-80
2021/08/31 02:13:25;;;;;;;7.23;5.17;;;23.70;54.80;;;;;;5146803;27;20453;-80
2021/08/31 02:15:54;;;;;;;8.80;5.43;;;23.70;54.80;;;;;;5146608;27;20393;-80
2021/08/31 02:18:22;;;;;;;5.97;5.40;;;23.70;54.90;;;;;;5141283;27;20480;-80
2021/08/31 02:20:50;;;;;;;5.80;5.00;;;23.70;54.80;;;;;;5146165;27;20462;-81
2021/08/31 02:23:18;;;;;;;6.40;5.80;;;23.70;54.90;;;;;;5146324;27;20495;-81
2021/08/31 02:25:46;;;;;;;7.83;5.53;;;23.70;54.90;;;;;;5146627;27;20507;-81
2021/08/31 02:28:14;;;;;;;6.03;5.43;;;23.70;54.90;;;;;;5146207;27;20420;-80
2021/08/31 02:30:42;;;;;;;7.50;5.43;;;23.70;54.80;;;;;;5146276;27;20438;-80
2021/08/31 02:33:12;;;;;;;6.97;5.30;;;23.70;54.80;;;;;;5146446;27;20408;-80
2021/08/31 02:35:40;;;;;;;5.93;5.10;;;23.70;54.80;;;;;;5146196;27;20446;-80
2021/08/31 02:38:08;;;;;;;6.40;5.70;;;23.70;54.70;;;;;;5145889;27;20436;-80
2021/08/31 02:40:36;;;;;;;5.87;5.27;;;23.70;54.70;;;;;;5145670;27;20472;-81
2021/08/31 02:43:04;;;;;;;6.00;5.40;;;23.70;54.70;;;;;;5145853;27;20468;-80
2021/08/31 02:45:32;;;;;;;6.27;5.43;;;23.70;54.70;;;;;;5145787;27;20434;-80
2021/08/31 02:48:00;;;;;;;5.53;4.93;;;23.70;54.70;;;;;;5144942;27;20427;-81
2021/08/31 02:50:29;;;;;;;8.37;5.50;;;23.70;54.80;;;;;;5145960;27;20466;-81
2021/08/31 02:52:57;;;;;;;5.37;4.93;;;23.70;54.70;;;;;;5146350;27;20514;-81
2021/08/31 02:55:25;;;;;;;5.70;5.20;;;23.70;54.80;;;;;;5145847;27;20541;-81
2021/08/31 02:57:55;;;;;;;5.40;4.90;;;23.70;54.80;;;;;;5145918;27;20461;-80
2021/08/31 03:00:29;;;;;;;6.13;5.40;;;23.70;54.70;;;;;;5145915;27;20558;-80
2021/08/31 03:02:57;;;;;;;5.93;5.37;;;23.70;54.60;;;;;;5145690;27;20434;-80
2021/08/31 03:05:25;;;;;;;7.70;5.30;;;23.70;54.80;;;;;;5145662;27;20443;-81
2021/08/31 03:07:55;;;;;;;5.20;4.73;;;23.70;54.80;;;;;;5145221;27;20501;-80
2021/08/31 03:10:23;;;;;;;6.40;5.03;;;23.70;54.70;;;;;;5146547;27;20485;-80
2021/08/31 03:12:51;;;;;;;5.37;4.87;;;23.70;54.70;;;;;;5146074;27;20484;-80
2021/08/31 03:15:19;;;;;;;5.57;5.00;;;23.70;54.70;;;;;;5145633;27;20428;-80
2021/08/31 03:17:47;;;;;;;5.60;4.70;;;23.70;54.70;;;;;;5145705;27;20405;-81
2021/08/31 03:20:15;;;;;;;5.73;4.97;;;23.70;54.80;;;;;;5145567;27;20526;-80
2021/08/31 03:22:43;;;;;;;5.10;4.70;;;23.70;54.80;;;;;;5145637;27;20496;-81
2021/08/31 03:25:13;;;;;;;5.40;4.90;;;23.70;54.70;;;;;;5145955;27;20432;-81
2021/08/31 03:27:41;;;;;;;5.57;5.07;;;23.70;54.70;;;;;;5145463;27;20550;-81
2021/08/31 03:30:10;;;;;;;6.57;5.83;;;23.60;54.70;;;;;;5145462;27;20434;-80
2021/08/31 03:32:38;;;;;;;5.77;5.27;;;23.60;54.80;;;;;;5145975;27;20426;-81
2021/08/31 03:35:07;;;;;;;5.77;5.03;;;23.60;54.80;;;;;;5145355;27;20442;-81
2021/08/31 03:37:35;;;;;;;6.10;5.50;;;23.60;54.80;;;;;;5144799;27;20416;-81
2021/08/31 03:40:06;;;;;;;5.70;5.10;;;23.50;54.80;;;;;;5144921;27;20494;-81
2021/08/31 03:42:36;;;;;;;6.33;5.37;;;23.50;54.80;;;;;;5145087;27;20442;-81
2021/08/31 03:45:04;;;;;;;5.30;4.80;;;23.50;54.90;;;;;;5145736;27;20446;-81
2021/08/31 03:47:32;;;;;;;5.13;4.63;;;23.50;54.80;;;;;;5144623;27;20514;-81
2021/08/31 03:50:00;;;;;;;7.90;4.70;;;23.40;54.80;;;;;;5144872;27;20561;-81
2021/08/31 03:52:28;;;;;;;5.43;4.93;;;23.50;54.80;;;;;;5145147;27;20435;-81
2021/08/31 03:54:56;;;;;;;5.37;4.87;;;23.50;54.90;;;;;;5145442;27;20408;-81
2021/08/31 03:57:24;;;;;;;5.83;5.23;;;23.40;54.80;;;;;;5147522;27;20557;-81
2021/08/31 03:59:53;;;;;;;5.50;5.00;;;23.40;54.90;;;;;;5148854;27;20461;-81
2021/08/31 04:02:22;;;;;;;5.20;4.70;;;23.40;55.00;;;;;;5134507;27;20436;-81
2021/08/31 04:04:50;;;;;;;6.27;5.37;;;23.40;54.90;;;;;;5142690;27;20471;-81
2021/08/31 04:07:18;;;;;;;5.20;4.70;;;23.40;54.90;;;;;;5148478;27;20405;-81
2021/08/31 04:09:46;;;;;;;5.20;4.70;;;23.40;55.00;;;;;;5148587;27;20442;-81
2021/08/31 04:12:14;;;;;;;5.27;4.87;;;23.40;54.90;;;;;;5149163;27;20401;-81
2021/08/31 04:14:43;;;;;;;4.90;4.50;;;23.40;55.00;;;;;;5148320;27;20490;-81
2021/08/31 04:17:14;;;;;;;5.10;4.70;;;23.40;55.10;;;;;;5148588;27;20420;-81
2021/08/31 04:19:42;;;;;;;5.17;4.70;;;23.40;55.10;;;;;;5148120;27;20472;-81
2021/08/31 04:22:12;;;;;;;4.93;4.43;;;23.40;55.10;;;;;;5148843;27;20435;-81
2021/08/31 04:24:40;;;;;;;5.27;4.77;;;23.40;55.10;;;;;;5148765;27;20437;-81
2021/08/31 04:27:11;;;;;;;5.13;4.63;;;23.30;55.00;;;;;;5148576;27;20464;-81
2021/08/31 04:29:39;;;;;;;4.67;4.27;;;23.40;55.20;;;;;;5148319;27;20426;-81
2021/08/31 04:32:14;;;;;;;5.27;4.60;;;23.30;55.00;;;;;;5148044;27;20417;-80
2021/08/31 04:34:42;;;;;;;8.83;5.30;;;23.30;55.00;;;;;;5148673;27;20426;-80
2021/08/31 04:37:10;;;;;;;5.90;5.30;;;23.30;55.10;;;;;;5149031;27;20437;-80
2021/08/31 04:39:38;;;;;;;5.07;4.57;;;23.30;55.20;;;;;;5148179;27;20502;-80
2021/08/31 04:42:06;;;;;;;5.10;4.47;;;23.30;55.20;;;;;;5147930;27;20476;-80
2021/08/31 04:44:34;;;;;;;7.03;4.60;;;23.30;55.00;;;;;;5148481;27;20416;-80
2021/08/31 04:47:02;;;;;;;5.43;4.93;;;23.30;55.20;;;;;;5148299;27;20526;-80
2021/08/31 04:49:32;;;;;;;4.60;4.20;;;23.30;55.10;;;;;;5148260;27;20497;-80
2021/08/31 04:52:00;;;;;;;10.90;4.37;;;23.20;55.10;;;;;;5148160;27;20466;-80
2021/08/31 04:54:28;;;;;;;5.03;4.53;;;23.20;55.20;;;;;;5148235;27;20433;-80
2021/08/31 04:56:57;;;;;;;4.53;4.13;;;23.20;55.10;;;;;;5148040;27;20421;-80
2021/08/31 04:59:25;;;;;;;4.97;4.57;;;23.20;55.10;;;;;;5148015;27;20473;-80
2021/08/31 05:01:53;;;;;;;4.90;4.50;;;23.20;55.20;;;;;;5148568;27;20602;-80
2021/08/31 05:04:21;;;;;;;4.80;4.40;;;23.20;55.20;;;;;;5147292;27;20445;-80
2021/08/31 05:06:51;;;;;;;5.37;4.87;;;23.10;55.00;;;;;;5147685;27;20397;-80
2021/08/31 05:09:19;;;;;;;5.90;4.17;;;23.10;55.10;;;;;;5146125;27;20433;-80
2021/08/31 05:11:47;;;;;;;4.77;4.37;;;23.10;55.10;;;;;;5148079;27;20400;-80
2021/08/31 05:14:15;;;;;;;4.80;4.30;;;23.20;55.10;;;;;;5148072;27;20443;-80
2021/08/31 05:16:43;;;;;;;5.70;4.77;;;23.20;55.10;;;;;;5147901;27;20461;-80
2021/08/31 05:19:10;;;;;;;5.13;4.63;;;23.10;55.10;;;;;;5147667;27;20498;-80
2021/08/31 05:21:38;;;;;;;5.17;4.77;;;23.10;55.10;;;;;;5147750;27;20527;-80
2021/08/31 05:24:08;;;;;;;4.80;4.40;;;23.10;55.10;;;;;;5147687;27;20438;-80
2021/08/31 05:26:38;;;;;;;5.13;4.63;;;23.10;55.10;;;;;;5147760;27;20480;-80
2021/08/31 05:29:06;;;;;;;5.00;4.50;;;23.10;55.10;;;;;;5148111;27;20436;-80
2021/08/31 05:31:34;;;;;;;6.17;5.00;;;23.00;55.10;;;;;;5147835;27;20442;-80
2021/08/31 05:34:02;;;;;;;5.30;4.80;;;23.00;55.10;;;;;;5147518;27;20448;-80
2021/08/31 05:36:30;;;;;;;4.33;3.93;;;23.10;55.20;;;;;;5147937;27;20430;-80
2021/08/31 05:38:58;;;;;;;4.90;4.50;;;23.10;55.10;;;;;;5147523;27;20446;-80
2021/08/31 05:41:28;;;;;;;4.70;4.30;;;23.10;55.20;;;;;;5147615;27;20458;-80
2021/08/31 05:43:56;;;;;;;5.10;4.60;;;23.10;55.00;;;;;;5147090;27;20481;-80
2021/08/31 05:46:24;;;;;;;5.10;4.70;;;23.10;55.10;;;;;;5146733;27;20439;-80
2021/08/31 05:48:52;;;;;;;4.97;4.47;;;23.10;55.10;;;;;;5147343;27;20473;-80
2021/08/31 05:51:20;;;;;;;5.00;4.60;;;23.00;55.00;;;;;;5147523;27;20430;-80
2021/08/31 05:53:48;;;;;;;4.70;4.30;;;23.00;55.00;;;;;;5146650;27;20462;-80
2021/08/31 05:56:16;;;;;;;4.63;4.23;;;23.00;55.00;;;;;;5147272;27;20430;-80
2021/08/31 05:58:45;;;;;;;4.77;4.37;;;23.10;55.20;;;;;;5146642;27;20493;-80
2021/08/31 06:01:13;;;;;;;4.77;4.30;;;23.10;55.10;;;;;;5147107;27;20542;-80
2021/08/31 06:03:42;;;;;;;4.80;4.30;;;23.10;55.00;;;;;;5147381;27;20477;-80
2021/08/31 06:06:10;;;;;;;4.87;4.37;;;23.10;55.00;;;;;;5147118;27;20437;-80
2021/08/31 06:08:38;;;;;;;4.53;4.07;;;23.10;54.90;;;;;;5146850;27;20601;-80
2021/08/31 06:11:06;;;;;;;5.50;4.50;;;23.10;54.90;;;;;;5147047;27;20519;-80
2021/08/31 06:13:34;;;;;;;5.20;4.70;;;23.20;54.80;;;;;;5147010;27;20451;-80
2021/08/31 06:16:04;;;;;;;4.53;4.13;;;23.30;54.80;;;;;;5146699;27;20469;-80
2021/08/31 06:18:32;;;;;;;4.73;4.30;;;23.30;54.70;;;;;;5146387;27;20417;-80
2021/08/31 06:21:00;;;;;;;4.27;3.97;;;23.40;54.60;;;;;;5145102;27;20477;-80
2021/08/31 06:23:31;;;;;;;5.30;4.67;;;23.40;54.80;;;;;;5146668;27;20501;-80
2021/08/31 06:25:59;;;;;;;5.13;4.73;;;23.40;54.50;;;;;;5146575;27;20453;-80
2021/08/31 06:28:27;;;;;;;5.60;4.57;;;23.50;54.50;;;;;;5146472;27;20468;-81
2021/08/31 06:30:55;;;;;;;5.07;4.53;;;23.60;54.40;;;;;;5146495;27;20438;-80
2021/08/31 06:33:24;;;;;;;4.80;4.40;;;23.60;54.40;;;;;;5146437;27;20498;-80
2021/08/31 06:35:52;;;;;;;7.20;4.60;;;23.70;54.30;;;;;;5146482;27;20441;-80
2021/08/31 06:38:20;;;;;;;5.07;4.67;;;23.70;54.20;;;;;;5146235;27;20434;-80
2021/08/31 06:40:48;;;;;;;4.30;4.00;;;23.70;54.30;;;;;;5146454;27;20430;-80
2021/08/31 06:43:16;;;;;;;5.10;4.70;;;23.80;54.10;;;;;;5145735;27;20430;-80
2021/08/31 06:45:45;;;;;;;5.40;4.60;;;23.80;54.30;;;;;;5146319;27;20491;-80
2021/08/31 06:48:13;;;;;;;4.43;4.03;;;23.80;54.20;;;;;;5145836;27;20434;-80
2021/08/31 06:50:42;;;;;;;5.17;4.70;;;23.80;54.30;;;;;;5146445;27;20487;-80
2021/08/31 06:53:10;;;;;;;5.00;4.60;;;23.80;54.10;;;;;;5145646;27;20428;-80
2021/08/31 06:55:41;;;;;;;4.80;4.40;;;23.90;54.10;;;;;;5146046;27;20437;-80
2021/08/31 06:58:08;;;;;;;4.07;3.77;;;23.90;54.10;;;;;;5145887;27;20461;-81
2021/08/31 07:00:36;;;;;;;4.90;4.50;;;23.90;54.30;;;;;;5146023;27;20484;-80
2021/08/31 07:03:05;;;;;;;4.90;4.50;;;23.90;54.10;;;;;;5145606;27;20523;-80
2021/08/31 07:05:33;;;;;;;5.00;4.60;;;24.00;54.10;;;;;;5145540;27;20434;-80
2021/08/31 07:08:02;;;;;;;5.67;4.60;;;24.00;54.10;;;;;;5145888;27;20452;-80
2021/08/31 07:10:30;;;;;;;4.90;4.50;;;24.00;54.10;;;;;;5146302;27;20581;-80
2021/08/31 07:12:58;;;;;;;4.83;4.43;;;24.10;54.20;;;;;;5145864;27;20412;-80
2021/08/31 07:15:27;;;;;;;4.50;4.20;;;24.10;54.20;;;;;;5145793;27;20450;-80
2021/08/31 07:17:55;;;;;;;5.20;4.70;;;24.10;54.10;;;;;;5145991;27;20429;-80
2021/08/31 07:20:22;;;;;;;4.43;4.13;;;24.10;54.20;;;;;;5145649;27;20450;-80
2021/08/31 07:22:51;;;;;;;4.70;4.30;;;24.10;54.30;;;;;;5145581;27;20474;-80
2021/08/31 07:25:40;;;;;;;4.47;4.17;;;24.20;54.30;;;;;;5146166;27;20397;-80
2021/08/31 07:28:08;;;;;;;4.47;4.17;;;24.20;54.10;;;;;;5145428;27;20449;-80
2021/08/31 07:30:36;;;;;;;4.37;4.03;;;24.30;54.30;;;;;;5144833;27;20446;-80
2021/08/31 07:33:05;;;;;;;4.30;4.00;;;24.30;54.30;;;;;;5145422;27;20405;-80
2021/08/31 07:35:33;;;;;;;3.90;3.70;;;24.40;54.10;;;;;;5145728;27;20537;-80
2021/08/31 07:38:02;;;;;;;4.63;4.23;;;24.50;54.20;;;;;;5145345;27;20445;-80
2021/08/31 07:40:30;;;;;;;4.30;3.90;;;24.50;54.10;;;;;;5145799;27;20419;-81
2021/08/31 07:43:00;;;;;;;4.53;4.20;;;24.50;54.20;;;;;;5145022;27;20497;-80
2021/08/31 07:45:28;;;;;;;3.90;3.70;;;24.60;54.20;;;;;;5145618;27;20513;-80
2021/08/31 07:47:56;;;;;;;4.57;4.27;;;24.70;54.20;;;;;;5144607;27;20457;-80
2021/08/31 07:50:24;;;;;;;4.23;3.87;;;24.80;53.90;;;;;;5145187;27;20430;-79
2021/08/31 07:52:52;;;;;;;4.93;4.53;;;24.90;53.80;;;;;;5145433;27;20401;-79
2021/08/31 07:55:21;;;;;;;4.00;3.70;;;25.10;53.70;;;;;;5144840;27;20469;-79
2021/08/31 07:57:49;;;;;;;3.97;3.73;;;25.20;53.60;;;;;;5144875;27;20426;-79
2021/08/31 08:00:19;;;;;;;4.00;3.80;;;25.30;53.50;;;;;;5145179;27;20413;-79
2021/08/31 08:02:47;;;;;;;4.13;3.87;;;25.40;53.30;;;;;;5144631;27;20469;-79
2021/08/31 08:05:15;;;;;;;3.80;3.60;;;25.60;53.20;;;;;;5145041;27;20413;-79
2021/08/31 08:07:43;;;;;;;3.60;3.30;;;25.80;53.10;;;;;;5144735;27;20424;-79
2021/08/31 08:10:11;;;;;;;4.03;3.73;;;25.90;53.10;;;;;;5144644;27;20464;-79
2021/08/31 08:12:39;;;;;;;3.53;3.33;;;26.10;52.90;;;;;;5145100;27;20493;-79
2021/08/31 08:15:08;;;;;;;3.60;3.40;;;26.30;52.90;;;;;;5144815;27;20405;-79
2021/08/31 08:17:37;;;;;;;3.87;3.57;;;26.50;52.70;;;;;;5141674;27;20537;-79
2021/08/31 08:20:08;;;;;;;3.70;3.50;;;26.70;52.50;;;;;;5144395;27;20495;-79
2021/08/31 08:22:36;;;;;;;4.13;3.83;;;26.90;52.40;;;;;;5129213;27;20472;-79
2021/08/31 08:25:04;;;;;;;4.30;3.90;;;27.10;52.10;;;;;;5132906;27;20472;-79
2021/08/31 08:27:33;;;;;;;4.10;3.80;;;27.30;52.10;;;;;;5135163;27;20496;-79
2021/08/31 08:30:01;;;;;;;3.40;3.20;;;27.50;52.50;;;;;;5143539;27;20397;-79
2021/08/31 08:32:29;;;;;;;3.77;3.57;;;27.70;51.80;;;;;;5143656;27;20552;-79
2021/08/31 08:34:58;;;;;;;3.70;3.50;;;27.90;51.70;;;;;;5143935;27;20407;-80
2021/08/31 08:37:26;;;;;;;3.70;3.40;;;28.10;51.50;;;;;;5138078;27;20498;-79
2021/08/31 08:39:54;;;;;;;3.30;3.10;;;28.30;51.40;;;;;;5143685;27;20430;-79
2021/08/31 08:42:22;;;;;;;3.63;3.43;;;28.50;51.20;;;;;;5145142;27;20502;-80
2021/08/31 08:44:50;;;;;;;3.13;3.03;;;28.70;51.00;;;;;;5147869;27;20393;-78
2021/08/31 08:47:18;;;;;;;3.30;3.10;;;28.80;50.90;;;;;;5145226;27;20469;-79
2021/08/31 08:49:49;;;;;;;3.83;3.50;;;29.00;50.70;;;;;;5147836;27;20427;-79
2021/08/31 08:52:18;;;;;;;3.40;3.20;;;29.20;50.50;;;;;;5145062;27;20468;-79
2021/08/31 08:54:46;;;;;;;3.27;3.10;;;29.50;50.40;;;;;;5148520;27;20417;-78
2021/08/31 08:57:17;;;;;;;2.97;2.77;;;29.80;50.00;;;;;;5147459;27;20426;-77
2021/08/31 08:59:48;;;;;;;3.17;3.07;;;29.90;49.70;;;;;;5147910;27;20442;-77
2021/08/31 09:02:31;;;;;;;2.90;2.80;;;30.10;49.60;;;;;;5130112;27;20519;-78
2021/08/31 09:04:59;;;;;;;3.00;2.80;;;30.30;49.40;;;;;;5127710;27;20461;-77
2021/08/31 09:07:29;;;;;;;6.80;3.03;;;30.50;49.20;;;;;;5128343;27;20423;-77
2021/08/31 09:10:15;;;;;;;2.90;2.80;;;30.80;49.00;;;;;;5127755;27;20519;-77
2021/08/31 09:12:45;;;;;;;3.00;2.80;;;31.00;49.00;;;;;;5127137;27;20466;-78
2021/08/31 09:15:27;;;;;;;2.93;2.83;;;31.30;48.60;;;;;;5137302;27;20525;-78
2021/08/31 09:18:16;;;;;;;3.00;2.90;;;31.40;48.20;;;;;;5145264;27;20461;-79
2021/08/31 09:20:48;;;;;;;2.67;2.57;;;31.70;48.10;;;;;;5145519;27;20426;-78
2021/08/31 09:23:21;;;;;;;2.87;2.67;;;31.90;47.80;;;;;;5145383;27;20430;-77
2021/08/31 09:25:50;;;;;;;2.67;2.57;;;32.00;47.60;;;;;;5147631;27;20537;-78
2021/08/31 09:28:22;;;;;;;2.97;2.87;;;32.20;47.60;;;;;;5147750;27;20462;-78
2021/08/31 09:30:58;;;;;;;3.43;3.27;;;32.40;47.40;;;;;;5147756;27;20426;-78
2021/08/31 09:33:28;;;;;;;2.60;2.50;;;32.60;47.10;;;;;;5146043;27;20485;-78
2021/08/31 09:36:15;;;;;;;2.77;2.67;;;32.80;47.00;;;;;;5147604;27;20438;-78
2021/08/31 09:38:46;;;;;;;2.30;2.20;;;33.00;46.70;;;;;;5145601;27;20474;-79
2021/08/31 09:41:35;;;;;;;2.67;2.57;;;33.30;46.30;;;;;;5147369;27;20513;-78
2021/08/31 09:44:06;;;;;;;2.30;2.20;;;33.60;46.10;;;;;;5145237;27;20426;-78
2021/08/31 09:46:57;;;;;;;2.70;2.60;;;33.80;45.80;;;;;;5147474;27;20484;-78
2021/08/31 09:49:27;;;;;;;2.53;2.43;;;34.10;45.60;;;;;;5145316;27;20454;-78
2021/08/31 09:52:03;;;;;;;2.20;2.10;;;34.40;45.10;;;;;;5147924;27;20537;-78
2021/08/31 09:54:35;;;;;;;2.50;2.40;;;34.70;44.70;;;;;;5145248;27;20485;-78
2021/08/31 09:57:20;;;;;;;2.93;2.73;;;35.00;44.30;;;;;;5137832;27;20459;-77
2021/08/31 09:59:48;;;;;;;1.90;1.90;;;35.20;44.10;;;;;;5124096;27;20557;-79
2021/08/31 10:02:16;;;;;;;2.13;2.00;;;35.40;43.70;;;;;;5147136;27;20469;-78
2021/08/31 10:04:44;;;;;;;2.70;2.50;;;35.40;43.50;;;;;;5143090;27;20449;-78
2021/08/31 10:07:12;;;;;;;2.80;2.60;;;35.30;43.50;;;;;;5133600;27;20497;-78
2021/08/31 10:09:41;;;;;;;2.60;2.50;;;35.30;43.40;;;;;;5146964;27;20458;-78
2021/08/31 10:12:10;;;;;;;3.00;2.80;;;35.10;43.50;;;;;;5147454;27;20510;-78
2021/08/31 10:14:39;;;;;;;2.57;2.47;;;35.10;44.30;;;;;;5146166;27;20519;-76
2021/08/31 10:17:08;;;;;;;2.10;2.10;;;35.10;44.00;;;;;;5132939;27;20431;-77
2021/08/31 10:19:37;;;;;;;2.30;2.30;;;35.10;44.00;;;;;;5134531;27;20436;-77
2021/08/31 10:22:06;;;;;;;2.60;2.50;;;35.30;43.80;;;;;;5146712;27;20469;-78
2021/08/31 10:24:34;;;;;;;2.30;2.20;;;35.60;43.60;;;;;;5136957;27;20430;-78
2021/08/31 10:30:42;;;;;;;2.17;2.10;;;35.80;43.30;;;;;;5121820;27;20592;-79
2021/08/31 10:33:36;;;;;;;2.37;2.17;;;36.20;42.50;;;;;;5102456;28;20470;-80
2021/08/31 10:36:07;;;;;;;2.70;2.60;;;36.00;42.40;;;;;;5103428;28;20468;-80
2021/08/31 10:38:49;;;;;;;2.63;2.53;;;36.20;42.80;;;;;;5101884;28;20494;-77
2021/08/31 10:41:43;;;;;;;2.37;2.27;;;36.40;42.60;;;;;;5102180;28;20475;-79
2021/08/31 10:44:13;;;;;;;2.50;2.30;;;36.80;42.30;;;;;;5109256;28;20474;-79
2021/08/31 10:47:05;;;;;;;2.27;2.13;;;37.10;41.70;;;;;;5102196;28;20428;-79
2021/08/31 10:50:09;;;;;;;2.20;2.10;;;37.60;41.30;;;;;;5101881;28;20536;-79
2021/08/31 10:52:38;;;;;;;2.43;2.33;;;37.60;41.30;;;;;;5038550;28;20466;-79
2021/08/31 10:55:06;;;;;;;2.03;1.93;;;37.70;40.30;;;;;;5022111;28;20506;-77
2021/08/31 10:57:44;;;;;;;2.30;2.27;;;37.40;40.40;;;;;;5055523;28;20541;-77
2021/08/31 11:00:49;;;;;;;3.90;2.47;;;37.10;40.60;;;;;;5101096;28;20535;-77
2021/08/31 11:03:37;;;;;;;2.47;2.37;;;37.00;41.50;;;;;;5097588;28;20480;-78
2021/08/31 11:06:24;;;;;;;2.40;2.30;;;37.30;41.40;;;;;;5101040;28;20420;-79
2021/08/31 11:09:18;;;;;;;1.90;1.90;;;37.70;41.10;;;;;;5098577;28;20522;-77
2021/08/31 11:12:10;;;;;;;2.27;2.17;;;37.60;40.30;;;;;;5098841;28;20513;-77
2021/08/31 11:14:43;;;;;;;1.90;1.90;;;37.70;40.10;;;;;;5098232;28;20424;-78
2021/08/31 11:17:11;;;;;;;2.00;1.90;;;38.00;40.60;;;;;;5097734;28;20428;-78
2021/08/31 11:19:39;;;;;;;2.30;2.10;;;39.10;39.70;;;;;;5100363;28;20438;-78
2021/08/31 11:22:08;;;;;;;2.27;2.17;;;40.50;38.20;;;;;;5099418;28;20439;-79
2021/08/31 11:24:36;;;;;;;3.17;1.53;;;41.80;36.20;;;;;;5099531;28;20537;-79
2021/08/31 11:27:06;;;;;;;1.53;1.53;;;43.00;34.70;;;;;;5100676;28;20432;-79
2021/08/31 11:29:34;;;;;;;1.90;1.80;;;44.10;33.20;;;;;;5097620;28;20464;-79
2021/08/31 11:32:04;;;;;;;1.67;1.67;;;43.10;31.60;;;;;;5100537;28;20432;-79
2021/08/31 11:34:33;;;;;;;1.80;1.70;;;41.90;33.40;;;;;;5100444;28;20424;-79
2021/08/31 11:37:06;;;;;;;1.57;1.57;;;43.30;34.50;;;;;;5100047;28;20419;-79
2021/08/31 11:39:38;;;;;;;1.60;1.50;;;44.90;32.20;;;;;;5097747;28;20424;-79
2021/08/31 11:42:09;;;;;;;1.40;1.40;;;46.30;30.50;;;;;;5086755;28;20531;-77
2021/08/31 11:44:39;;;;;;;1.20;1.20;;;47.40;29.40;;;;;;5090272;28;20464;-78
2021/08/31 11:47:07;;;;;;;1.20;1.20;;;48.20;28.30;;;;;;5095501;28;20443;-77
2021/08/31 11:49:35;;;;;;;1.20;1.20;;;46.50;28.10;;;;;;5092040;28;20449;-79
2021/08/31 11:52:07;;;;;;;1.33;1.33;;;47.20;28.90;;;;;;5095427;28;20447;-77
2021/08/31 11:54:40;;;;;;;1.10;1.10;;;48.20;28.10;;;;;;5095604;28;20431;-77
2021/08/31 11:57:14;;;;;;;1.23;1.20;;;49.10;27.30;;;;;;5095008;28;20195;-77
2021/08/31 11:59:42;;;;;;;0.90;0.90;;;49.90;26.70;;;;;;5095733;28;20309;-77
2021/08/31 12:02:12;;;;;;;1.40;1.25;;;49.80;25.00;;;;;;5080384;28;20224;-77
2021/08/31 12:04:40;;;;;;;1.13;1.13;;;47.80;26.20;;;;;;5085573;28;20214;-77
2021/08/31 12:07:09;;;;;;;1.20;1.20;;;48.40;27.60;;;;;;5097278;28;20432;-77
2021/08/31 12:09:41;;;;;;;1.23;1.23;;;48.00;26.60;;;;;;5088870;28;20187;-76
2021/08/31 12:12:10;;;;;;;1.02;1.02;;;49.10;27.00;;;;;;5106521;28;20222;-77
2021/08/31 12:14:38;;;;;;;1.10;1.10;;;50.00;25.90;;;;;;5097043;28;20211;-77
2021/08/31 12:17:07;;;;;;;0.90;0.90;;;50.90;25.20;;;;;;5086323;28;20219;-77
2021/08/31 12:19:35;;;;;;;1.20;1.20;;;50.30;24.30;;;;;;5085615;28;20300;-77
2021/08/31 12:22:11;;;;;;;1.20;1.20;;;48.60;25.90;;;;;;5085999;28;20239;-77
2021/08/31 12:24:41;;;;;;;1.38;1.38;;;49.60;26.10;;;;;;5092300;28;20233;-77
2021/08/31 12:27:12;;;;;;;1.20;1.20;;;50.60;25.50;;;;;;5088922;28;20200;-77
2021/08/31 12:29:48;;;;;;;1.30;1.30;;;49.10;25.10;;;;;;5084357;28;20344;-77
2021/08/31 12:32:21;;;;;;;2.35;1.25;;;48.60;26.80;;;;;;5083847;28;20286;-77
2021/08/31 12:34:49;;;;;;;1.20;1.20;;;47.70;26.30;;;;;;5085928;28;20288;-79
2021/08/31 12:37:31;;;;;;;1.57;1.47;;;46.20;27.40;;;;;;5078177;28;20464;-79
2021/08/31 12:40:28;;;;;;;1.50;1.50;;;44.80;28.60;;;;;;5084468;28;20479;-79
2021/08/31 12:43:03;;;;;;;1.40;1.40;;;46.20;29.00;;;;;;5063472;28;20435;-80
2021/08/31 12:45:33;;;;;;;1.13;1.13;;;47.80;27.40;;;;;;5103663;28;20194;-78
2021/08/31 12:48:01;;;;;;;1.08;1.08;;;49.30;26.10;;;;;;5105591;28;20290;-78
2021/08/31 12:50:30;;;;;;;1.10;1.10;;;49.60;26.00;;;;;;5102641;28;20225;-78
2021/08/31 12:53:06;;;;;;;1.20;1.20;;;49.20;25.00;;;;;;5104779;28;20199;-78
2021/08/31 12:55:35;;;;;;;1.27;1.27;;;47.20;26.50;;;;;;5103741;27;20243;-80
2021/08/31 12:58:26;;;;;;;1.60;1.60;;;45.80;27.60;;;;;;5105857;28;20428;-79
2021/08/31 13:01:14;;;;;;;1.40;1.40;;;44.80;29.20;;;;;;5085245;28;20500;-80
2021/08/31 13:03:44;;;;;;;1.50;1.40;;;46.70;28.40;;;;;;5105422;27;20426;-80
2021/08/31 13:06:31;;;;;;;1.50;1.50;;;46.70;27.00;;;;;;5105025;27;20455;-80
2021/08/31 13:08:59;;;;;;;1.40;1.40;;;45.00;28.10;;;;;;5103025;28;20439;-80